createdAt,value
2018-11-05T00:00:19.988Z,11.08
2018-11-05T00:02:50.821Z,11.08
2018-11-05T00:05:20.017Z,11.07
2018-11-05T00:07:48.877Z,11.09
2018-11-05T00:10:17.691Z,11.09
2018-11-05T00:12:46.452Z,11.04
2018-11-05T00:15:15.247Z,11.02
2018-11-05T00:17:44.055Z,10.97
2018-11-05T00:20:13.257Z,10.96
2018-11-05T00:22:42.338Z,10.96
2018-11-05T00:25:12.757Z,10.95
2018-11-05T00:27:42.084Z,10.91
2018-11-05T00:30:12.430Z,10.83
2018-11-05T00:32:41.604Z,10.81
2018-11-05T00:35:10.404Z,10.80
2018-11-05T00:37:39.199Z,10.82
2018-11-05T00:40:10.530Z,10.80
2018-11-05T00:42:39.313Z,10.77
2018-11-05T00:45:10.030Z,10.73
2018-11-05T00:47:38.826Z,10.70
2018-11-05T00:50:09.719Z,10.67
2018-11-05T00:52:38.527Z,10.64
2018-11-05T00:55:08.162Z,10.66
2018-11-05T00:57:37.062Z,10.65
2018-11-05T01:00:14.046Z,10.63
2018-11-05T01:02:43.134Z,10.58
2018-11-05T01:05:13.354Z,10.54
2018-11-05T01:07:42.962Z,10.52
2018-11-05T01:10:13.695Z,10.41
2018-11-05T01:12:42.569Z,10.29
2018-11-05T01:15:16.602Z,10.24
2018-11-05T01:17:45.375Z,10.18
2018-11-05T01:20:15.502Z,10.10
2018-11-05T01:22:44.295Z,10.06
2018-11-05T01:25:13.090Z,10.01
2018-11-05T01:27:41.875Z,9.92
2018-11-05T01:30:12.662Z,9.89
2018-11-05T01:32:41.562Z,9.74
2018-11-05T01:35:12.062Z,9.67
2018-11-05T01:37:40.929Z,9.64
2018-11-05T01:40:13.106Z,9.61
2018-11-05T01:42:42.008Z,9.49
2018-11-05T01:45:12.058Z,9.48
2018-11-05T01:47:41.663Z,9.39
2018-11-05T01:50:12.367Z,9.35
2018-11-05T01:52:41.689Z,9.33
2018-11-05T01:55:10.833Z,9.32
2018-11-05T01:57:40.259Z,9.31
2018-11-05T02:00:14.370Z,9.28
2018-11-05T02:02:43.645Z,9.25
2018-11-05T02:05:12.435Z,9.24
2018-11-05T02:07:42.331Z,9.22
2018-11-05T02:10:13.429Z,9.19
2018-11-05T02:12:42.501Z,9.26
2018-11-05T02:15:11.707Z,9.29
2018-11-05T02:17:42.047Z,9.29
2018-11-05T02:20:11.113Z,9.29
2018-11-05T02:22:40.109Z,9.26
2018-11-05T02:25:09.844Z,9.27
2018-11-05T02:27:39.057Z,9.23
2018-11-05T02:30:11.880Z,9.07
2018-11-05T02:32:40.688Z,9.05
2018-11-05T02:35:11.335Z,9.04
2018-11-05T02:37:40.636Z,8.98
2018-11-05T02:40:12.395Z,8.97
2018-11-05T02:42:41.895Z,8.99
2018-11-05T02:45:12.551Z,8.97
2018-11-05T02:47:41.334Z,9.01
2018-11-05T02:50:11.570Z,9.02
2018-11-05T02:52:41.418Z,8.97
2018-11-05T02:55:10.548Z,8.97
2018-11-05T02:57:39.362Z,8.91
2018-11-05T03:00:11.428Z,8.92
2018-11-05T03:02:40.415Z,8.88
2018-11-05T03:05:11.396Z,8.85
2018-11-05T03:07:40.149Z,8.82
2018-11-05T03:10:10.237Z,8.78
2018-11-05T03:12:39.344Z,8.78
2018-11-05T03:15:09.457Z,8.78
2018-11-05T03:17:38.488Z,8.73
2018-11-05T03:20:08.942Z,8.71
2018-11-05T03:22:37.970Z,8.70
2018-11-05T03:25:06.840Z,8.71
2018-11-05T03:27:35.903Z,8.69
2018-11-05T03:30:14.569Z,8.71
2018-11-05T03:32:43.389Z,8.72
2018-11-05T03:35:13.312Z,8.68
2018-11-05T03:37:43.293Z,8.66
2018-11-05T03:40:13.147Z,8.60
2018-11-05T03:42:42.443Z,8.61
2018-11-05T03:45:13.393Z,8.62
2018-11-05T03:47:42.213Z,8.51
2018-11-05T03:50:13.648Z,8.51
2018-11-05T03:52:42.901Z,8.39
2018-11-05T03:55:11.909Z,8.35
2018-11-05T03:57:40.678Z,8.34
2018-11-05T04:00:11.031Z,8.19
2018-11-05T04:02:39.799Z,8.23
2018-11-05T04:05:08.997Z,8.14
2018-11-05T04:07:38.199Z,8.12
2018-11-05T04:10:07.658Z,8.18
2018-11-05T04:12:36.414Z,8.20
2018-11-05T04:15:05.355Z,8.21
2018-11-05T04:17:34.125Z,8.22
2018-11-05T04:20:02.934Z,8.25
2018-11-05T04:22:31.947Z,8.21
2018-11-05T04:25:00.739Z,8.23
2018-11-05T04:27:29.963Z,8.20
2018-11-05T04:29:58.895Z,8.12
2018-11-05T04:32:27.662Z,8.08
2018-11-05T04:34:56.422Z,8.07
2018-11-05T04:37:25.351Z,8.05
2018-11-05T04:39:54.146Z,8.04
2018-11-05T04:42:23.285Z,7.99
2018-11-05T04:44:52.058Z,7.94
2018-11-05T04:47:20.786Z,7.86
2018-11-05T04:49:50.131Z,7.81
2018-11-05T04:52:18.886Z,7.81
2018-11-05T04:54:47.703Z,7.79
2018-11-05T04:57:16.474Z,7.72
2018-11-05T04:59:45.308Z,7.69
2018-11-05T05:02:14.187Z,7.64
2018-11-05T05:04:42.987Z,7.68
2018-11-05T05:07:11.771Z,7.59
2018-11-05T05:09:40.559Z,7.64
2018-11-05T05:12:09.440Z,7.53
2018-11-05T05:14:38.184Z,7.54
2018-11-05T05:17:07.486Z,7.51
2018-11-05T05:19:36.237Z,7.55
2018-11-05T05:22:05.339Z,7.66
2018-11-05T05:24:34.124Z,7.69
2018-11-05T05:27:02.935Z,7.77
2018-11-05T05:29:31.776Z,7.79
2018-11-05T05:32:00.594Z,7.78
2018-11-05T05:34:29.381Z,7.84
2018-11-05T05:36:58.248Z,7.90
2018-11-05T05:39:27.059Z,7.92
2018-11-05T05:41:55.870Z,7.91
2018-11-05T05:44:24.642Z,7.96
2018-11-05T05:46:53.530Z,7.98
2018-11-05T05:49:22.411Z,8.06
2018-11-05T05:51:51.203Z,8.12
2018-11-05T05:54:20.035Z,8.17
2018-11-05T05:56:48.925Z,8.20
2018-11-05T05:59:18.010Z,8.23
2018-11-05T06:01:46.843Z,8.31
2018-11-05T06:04:15.642Z,8.43
2018-11-05T06:06:44.417Z,8.58
2018-11-05T06:09:13.455Z,8.67
2018-11-05T06:11:42.283Z,8.79
2018-11-05T06:14:11.109Z,8.93
2018-11-05T06:16:39.916Z,8.98
2018-11-05T06:19:08.671Z,9.01
2018-11-05T06:21:37.485Z,9.12
2018-11-05T06:24:06.262Z,9.20
2018-11-05T06:26:35.047Z,9.22
2018-11-05T06:29:03.832Z,9.23
2018-11-05T06:31:32.642Z,9.26
2018-11-05T06:34:01.455Z,9.32
2018-11-05T06:36:30.254Z,9.44
2018-11-05T06:38:59.084Z,9.45
2018-11-05T06:41:28.010Z,9.46
2018-11-05T06:43:56.899Z,9.54
2018-11-05T06:46:25.859Z,9.65
2018-11-05T06:48:54.713Z,9.79
2018-11-05T06:51:23.638Z,9.88
2018-11-05T06:53:52.415Z,9.80
2018-11-05T06:56:21.223Z,9.85
2018-11-05T06:58:50.190Z,9.93
2018-11-05T07:01:18.971Z,10.10
2018-11-05T07:03:47.832Z,10.29
2018-11-05T07:06:16.700Z,10.39
2018-11-05T07:08:45.565Z,10.51
2018-11-05T07:11:14.361Z,10.67
2018-11-05T07:13:43.255Z,10.80
2018-11-05T07:16:12.194Z,10.87
2018-11-05T07:18:41.132Z,10.91
2018-11-05T07:21:10.047Z,11.00
2018-11-05T07:23:38.920Z,11.08
2018-11-05T07:26:08.255Z,11.09
2018-11-05T07:28:37.195Z,11.10
2018-11-05T07:31:06.163Z,11.18
2018-11-05T07:33:35.080Z,11.24
2018-11-05T07:36:04.076Z,11.27
2018-11-05T07:38:32.836Z,11.34
2018-11-05T07:41:01.625Z,11.40
2018-11-05T07:43:30.434Z,11.43
2018-11-05T07:45:59.247Z,11.49
2018-11-05T07:48:28.070Z,11.60
2018-11-05T07:50:56.894Z,11.70
2018-11-05T07:53:25.755Z,11.78
2018-11-05T07:55:54.552Z,11.70
2018-11-05T07:58:23.393Z,11.67
2018-11-05T08:00:56.581Z,11.60
2018-11-05T08:03:25.953Z,11.66
2018-11-05T08:05:55.170Z,11.74
2018-11-05T08:08:24.079Z,11.82
2018-11-05T08:10:53.071Z,11.86
2018-11-05T08:13:21.934Z,11.96
2018-11-05T08:15:50.819Z,11.97
2018-11-05T08:18:19.618Z,11.94
2018-11-05T08:20:48.426Z,12.05
2018-11-05T08:23:17.230Z,12.11
2018-11-05T08:25:45.998Z,12.15
2018-11-05T08:28:14.829Z,12.14
2018-11-05T08:30:43.653Z,12.07
2018-11-05T08:33:12.466Z,12.11
2018-11-05T08:35:41.326Z,12.23
2018-11-05T08:38:10.114Z,12.29
2018-11-05T08:40:38.931Z,12.29
2018-11-05T08:43:07.785Z,12.36
2018-11-05T08:45:36.663Z,12.43
2018-11-05T08:48:07.214Z,12.44
2018-11-05T08:50:36.201Z,12.49
2018-11-05T08:53:05.197Z,12.45
2018-11-05T08:55:34.001Z,12.48
2018-11-05T08:58:02.839Z,12.56
2018-11-05T09:00:36.861Z,12.64
2018-11-05T09:03:06.460Z,12.77
2018-11-05T09:05:35.354Z,12.88
2018-11-05T09:08:04.182Z,12.84
2018-11-05T09:10:33.181Z,12.88
2018-11-05T09:13:02.034Z,12.86
2018-11-05T09:15:30.849Z,12.83
2018-11-05T09:17:59.658Z,12.89
2018-11-05T09:20:28.517Z,12.97
2018-11-05T09:22:57.322Z,13.01
2018-11-05T09:25:26.237Z,13.05
2018-11-05T09:27:55.059Z,13.08
2018-11-05T09:30:24.854Z,13.17
2018-11-05T09:32:53.814Z,13.22
2018-11-05T09:35:22.620Z,13.28
2018-11-05T09:37:51.514Z,13.31
2018-11-05T09:40:22.653Z,13.40
2018-11-05T09:42:51.770Z,13.37
2018-11-05T09:45:23.197Z,13.34
2018-11-05T09:47:52.015Z,13.39
2018-11-05T09:50:21.111Z,13.47
2018-11-05T09:52:50.078Z,13.54
2018-11-05T09:55:19.010Z,13.60
2018-11-05T09:57:47.810Z,13.66
2018-11-05T10:00:18.927Z,13.64
2018-11-05T10:02:52.984Z,13.66
2018-11-05T10:05:21.955Z,13.77
2018-11-05T10:07:50.942Z,13.73
2018-11-05T10:10:19.834Z,13.82
2018-11-05T10:12:48.843Z,13.90
2018-11-05T10:15:18.551Z,13.88
2018-11-05T10:17:47.428Z,13.93
2018-11-05T10:20:20.050Z,13.92
2018-11-05T10:22:48.898Z,14.02
2018-11-05T10:25:17.977Z,14.08
2018-11-05T10:27:47.437Z,14.14
2018-11-05T10:30:19.085Z,14.19
2018-11-05T10:32:47.917Z,14.24
2018-11-05T10:35:17.431Z,14.29
2018-11-05T10:37:46.222Z,14.32
2018-11-05T10:40:16.965Z,14.32
2018-11-05T10:42:46.755Z,14.41
2018-11-05T10:45:16.638Z,14.51
2018-11-05T10:47:45.630Z,14.55
2018-11-05T10:50:15.848Z,14.62
2018-11-05T10:52:46.302Z,14.75
2018-11-05T10:55:15.191Z,14.79
2018-11-05T10:57:45.229Z,14.79
2018-11-05T11:00:21.237Z,14.88
2018-11-05T11:02:55.404Z,14.94
2018-11-05T11:05:24.935Z,15.06
2018-11-05T11:07:55.033Z,15.13
2018-11-05T11:10:24.298Z,15.21
2018-11-05T11:12:53.054Z,15.20
2018-11-05T11:15:22.232Z,15.21
2018-11-05T11:17:51.072Z,15.26
2018-11-05T11:20:19.938Z,15.33
2018-11-05T11:22:50.368Z,15.41
2018-11-05T11:25:19.173Z,15.41
2018-11-05T11:27:48.008Z,15.43
2018-11-05T11:30:17.514Z,15.46
2018-11-05T11:32:46.969Z,15.46
2018-11-05T11:35:15.711Z,15.50
2018-11-05T11:37:44.485Z,15.54
2018-11-05T11:40:15.503Z,15.59
2018-11-05T11:42:45.207Z,15.59
2018-11-05T11:45:14.730Z,15.67
2018-11-05T11:47:43.539Z,15.74
2018-11-05T11:50:13.736Z,15.89
2018-11-05T11:52:42.569Z,15.93
2018-11-05T11:55:13.496Z,16.03
2018-11-05T11:57:42.758Z,16.10
2018-11-05T12:00:14.495Z,16.11
2018-11-05T12:02:43.356Z,16.13
2018-11-05T12:05:13.245Z,16.14
2018-11-05T12:07:42.067Z,16.16
2018-11-05T12:10:15.632Z,16.17
2018-11-05T12:12:44.850Z,16.19
2018-11-05T12:15:14.678Z,16.22
2018-11-05T12:17:44.033Z,16.17
2018-11-05T12:20:17.153Z,16.20
2018-11-05T12:22:52.798Z,16.14
2018-11-05T12:25:21.652Z,16.09
2018-11-05T12:27:50.468Z,16.06
2018-11-05T12:30:20.605Z,16.12
2018-11-05T12:32:50.362Z,16.15
2018-11-05T12:35:19.856Z,16.14
2018-11-05T12:37:49.805Z,16.17
2018-11-05T12:40:19.972Z,16.28
2018-11-05T12:42:49.679Z,16.35
2018-11-05T12:45:18.509Z,16.41
2018-11-05T12:47:47.358Z,16.46
2018-11-05T12:50:19.632Z,16.52
2018-11-05T12:52:49.202Z,16.56
2018-11-05T12:55:18.381Z,16.57
2018-11-05T12:57:47.494Z,16.59
2018-11-05T13:00:19.522Z,16.66
2018-11-05T13:02:57.473Z,16.68
2018-11-05T13:05:27.278Z,16.76
2018-11-05T13:07:56.062Z,16.71
2018-11-05T13:10:25.190Z,16.72
2018-11-05T13:12:54.091Z,16.75
2018-11-05T13:15:23.441Z,16.82
2018-11-05T13:17:52.298Z,16.84
2018-11-05T13:20:22.346Z,16.89
2018-11-05T13:22:51.459Z,16.91
2018-11-05T13:25:20.212Z,16.88
2018-11-05T13:27:49.976Z,16.91
2018-11-05T13:30:18.884Z,16.94
2018-11-05T13:32:47.717Z,16.97
2018-11-05T13:35:19.739Z,16.94
2018-11-05T13:37:48.928Z,16.88
2018-11-05T13:40:18.765Z,16.92
2018-11-05T13:42:48.030Z,16.94
2018-11-05T13:45:17.354Z,16.96
2018-11-05T13:47:46.851Z,16.95
2018-11-05T13:50:15.936Z,16.94
2018-11-05T13:52:44.650Z,16.94
2018-11-05T13:55:15.412Z,16.95
2018-11-05T13:57:46.139Z,16.93
2018-11-05T14:00:17.266Z,16.93
2018-11-05T14:02:46.174Z,16.94
2018-11-05T14:05:15.095Z,16.95
2018-11-05T14:07:44.904Z,16.96
2018-11-05T14:10:16.127Z,16.96
2018-11-05T14:12:45.786Z,16.93
2018-11-05T14:15:14.951Z,16.93
2018-11-05T14:17:44.295Z,16.94
2018-11-05T14:20:14.427Z,16.87
2018-11-05T14:22:43.482Z,16.87
2018-11-05T14:25:19.136Z,16.84
2018-11-05T14:27:49.443Z,16.85
2018-11-05T14:30:18.292Z,16.77
2018-11-05T14:32:48.155Z,16.72
2018-11-05T14:35:16.993Z,16.69
2018-11-05T14:37:45.840Z,16.67
2018-11-05T14:40:16.040Z,16.61
2018-11-05T14:42:44.890Z,16.53
2018-11-05T14:45:15.682Z,16.47
2018-11-05T14:47:45.369Z,16.51
2018-11-05T14:50:15.861Z,16.47
2018-11-05T14:52:44.750Z,16.44
2018-11-05T14:55:15.474Z,16.44
2018-11-05T14:57:45.058Z,16.39
2018-11-05T15:00:16.595Z,16.28
2018-11-05T15:02:46.038Z,16.28
2018-11-05T15:05:15.559Z,16.18
2018-11-05T15:07:45.300Z,16.14
2018-11-05T15:10:18.557Z,16.04
2018-11-05T15:12:47.376Z,15.95
2018-11-05T15:15:16.884Z,15.88
2018-11-05T15:17:45.951Z,15.80
2018-11-05T15:20:22.344Z,15.74
2018-11-05T15:22:57.409Z,15.69
2018-11-05T15:25:27.487Z,15.67
2018-11-05T15:27:56.857Z,15.63
2018-11-05T15:30:25.790Z,15.59
2018-11-05T15:32:54.857Z,15.54
2018-11-05T15:35:24.777Z,15.46
2018-11-05T15:37:53.564Z,15.41
2018-11-05T15:40:22.906Z,15.34
2018-11-05T15:42:52.018Z,15.30
2018-11-05T15:45:21.889Z,15.21
2018-11-05T15:47:50.989Z,15.17
2018-11-05T15:50:20.772Z,15.17
2018-11-05T15:52:50.282Z,15.12
2018-11-05T15:55:18.878Z,15.06
2018-11-05T15:57:47.768Z,15.05
2018-11-05T16:00:21.270Z,14.98
2018-11-05T16:02:51.918Z,14.99
2018-11-05T16:05:20.827Z,14.96
2018-11-05T16:07:50.006Z,15.01
2018-11-05T16:10:18.826Z,14.98
2018-11-05T16:12:47.798Z,14.98
2018-11-05T16:15:16.609Z,14.91
2018-11-05T16:17:45.389Z,14.88
2018-11-05T16:20:17.737Z,14.82
2018-11-05T16:22:47.217Z,14.79
2018-11-05T16:25:16.039Z,14.74
2018-11-05T16:27:45.067Z,14.68
2018-11-05T16:30:16.670Z,14.67
2018-11-05T16:32:46.238Z,14.67
2018-11-05T16:35:15.162Z,14.60
2018-11-05T16:37:44.141Z,14.60
2018-11-05T16:40:15.369Z,14.56
2018-11-05T16:42:44.934Z,14.48
2018-11-05T16:45:13.719Z,14.49
2018-11-05T16:47:43.118Z,14.48
2018-11-05T16:50:16.616Z,14.54
2018-11-05T16:52:45.474Z,14.54
2018-11-05T16:55:14.929Z,14.50
2018-11-05T16:57:44.269Z,14.45
2018-11-05T17:00:13.983Z,14.51
2018-11-05T17:02:43.613Z,14.49
2018-11-05T17:05:12.410Z,14.43
2018-11-05T17:07:41.268Z,14.42
2018-11-05T17:10:11.585Z,14.43
2018-11-05T17:12:40.662Z,14.40
2018-11-05T17:15:11.753Z,14.37
2018-11-05T17:17:41.045Z,14.33
2018-11-05T17:20:13.038Z,14.25
2018-11-05T17:22:42.691Z,14.24
2018-11-05T17:25:12.225Z,14.20
2018-11-05T17:27:41.370Z,14.11
2018-11-05T17:30:14.815Z,13.99
2018-11-05T17:32:44.141Z,13.76
2018-11-05T17:35:13.196Z,13.45
2018-11-05T17:37:42.010Z,13.29
2018-11-05T17:40:12.769Z,13.17
2018-11-05T17:42:41.790Z,13.10
2018-11-05T17:45:12.229Z,12.95
2018-11-05T17:47:41.489Z,12.84
2018-11-05T17:50:13.326Z,12.86
2018-11-05T17:52:42.681Z,12.77
2018-11-05T17:55:12.356Z,12.73
2018-11-05T17:57:42.064Z,12.63
2018-11-05T18:00:18.569Z,12.61
2018-11-05T18:02:47.371Z,12.55
2018-11-05T18:05:16.227Z,12.51
2018-11-05T18:07:45.278Z,12.50
2018-11-05T18:10:14.056Z,12.42
2018-11-05T18:12:42.971Z,12.38
2018-11-05T18:15:12.641Z,12.31
2018-11-05T18:17:42.246Z,12.27
2018-11-05T18:20:12.536Z,12.26
2018-11-05T18:22:41.722Z,12.21
2018-11-05T18:25:12.555Z,12.18
2018-11-05T18:27:41.602Z,12.11
2018-11-05T18:30:11.425Z,12.07
2018-11-05T18:32:40.230Z,12.01
2018-11-05T18:35:10.781Z,11.93
2018-11-05T18:37:39.650Z,11.93
2018-11-05T18:40:12.516Z,11.92
2018-11-05T18:42:41.802Z,11.86
2018-11-05T18:45:11.485Z,11.80
2018-11-05T18:47:40.447Z,11.78
2018-11-05T18:50:11.306Z,11.78
2018-11-05T18:52:40.354Z,11.75
2018-11-05T18:55:11.302Z,11.73
2018-11-05T18:57:40.450Z,11.76
2018-11-05T19:00:17.539Z,11.77
2018-11-05T19:02:46.501Z,11.79
2018-11-05T19:05:15.615Z,11.77
2018-11-05T19:07:44.376Z,11.77
2018-11-05T19:10:13.470Z,11.75
2018-11-05T19:12:42.347Z,11.75
2018-11-05T19:15:12.550Z,11.77
2018-11-05T19:17:41.983Z,11.75
2018-11-05T19:20:11.428Z,11.70
2018-11-05T19:22:41.272Z,11.65
2018-11-05T19:25:11.922Z,11.61
2018-11-05T19:27:41.218Z,11.57
2018-11-05T19:30:15.187Z,11.50
2018-11-05T19:32:44.549Z,11.42
2018-11-05T19:35:13.663Z,11.35
2018-11-05T19:37:42.855Z,11.23
2018-11-05T19:40:13.559Z,11.21
2018-11-05T19:42:43.234Z,11.14
2018-11-05T19:45:14.269Z,11.07
2018-11-05T19:47:43.187Z,10.96
2018-11-05T19:50:14.172Z,10.87
2018-11-05T19:52:43.959Z,10.81
2018-11-05T19:55:13.860Z,10.71
2018-11-05T19:57:43.579Z,10.65
2018-11-05T20:00:18.569Z,10.62
2018-11-05T20:02:48.206Z,10.56
2018-11-05T20:05:17.653Z,10.64
2018-11-05T20:07:46.951Z,10.59
2018-11-05T20:10:15.832Z,10.61
2018-11-05T20:12:45.264Z,10.59
2018-11-05T20:15:14.359Z,10.58
2018-11-05T20:17:44.150Z,10.62
2018-11-05T20:20:14.358Z,10.62
2018-11-05T20:22:43.302Z,10.62
2018-11-05T20:25:12.426Z,10.60
2018-11-05T20:27:41.734Z,10.57
2018-11-05T20:30:14.243Z,10.42
2018-11-05T20:32:43.712Z,10.38
2018-11-05T20:35:12.571Z,10.33
2018-11-05T20:37:41.399Z,10.28
2018-11-05T20:40:15.150Z,10.29
2018-11-05T20:42:45.217Z,10.24
2018-11-05T20:45:14.431Z,10.25
2018-11-05T20:47:43.700Z,10.19
2018-11-05T20:50:13.466Z,10.14
2018-11-05T20:52:42.251Z,10.10
2018-11-05T20:55:12.454Z,10.03
2018-11-05T20:57:41.723Z,10.04
2018-11-05T21:00:12.151Z,9.91
2018-11-05T21:02:41.469Z,9.86
2018-11-05T21:05:10.712Z,9.81
2018-11-05T21:07:41.011Z,9.85
2018-11-05T21:10:11.202Z,9.87
2018-11-05T21:12:40.747Z,9.86
2018-11-05T21:15:22.398Z,9.82
2018-11-05T21:17:52.338Z,9.82
2018-11-05T21:20:21.672Z,9.83
2018-11-05T21:22:51.001Z,9.89
2018-11-05T21:25:19.838Z,9.87
2018-11-05T21:27:48.627Z,9.84
2018-11-05T21:30:19.645Z,9.85
2018-11-05T21:32:48.484Z,9.86
2018-11-05T21:35:18.677Z,9.88
2018-11-05T21:37:47.478Z,9.88
2018-11-05T21:40:17.070Z,9.83
2018-11-05T21:42:45.886Z,9.77
2018-11-05T21:45:15.432Z,9.74
2018-11-05T21:47:44.945Z,9.76
2018-11-05T21:50:15.272Z,9.77
2018-11-05T21:52:44.678Z,9.75
2018-11-05T21:55:13.874Z,9.74
2018-11-05T21:57:45.866Z,9.74
2018-11-05T22:00:17.031Z,9.62
2018-11-05T22:02:50.884Z,9.55
2018-11-05T22:05:19.740Z,9.53
2018-11-05T22:07:48.899Z,9.49
2018-11-05T22:10:18.603Z,9.50
2018-11-05T22:12:47.999Z,9.50
2018-11-05T22:15:16.823Z,9.52
2018-11-05T22:17:45.666Z,9.53
2018-11-05T22:20:14.909Z,9.40
2018-11-05T22:22:43.745Z,9.38
2018-11-05T22:25:12.861Z,9.24
2018-11-05T22:27:41.704Z,9.18
2018-11-05T22:30:11.490Z,9.09
2018-11-05T22:32:40.247Z,9.16
2018-11-05T22:35:09.387Z,9.21
2018-11-05T22:37:38.294Z,9.21
2018-11-05T22:40:10.155Z,9.23
2018-11-05T22:42:38.954Z,9.21
2018-11-05T22:45:08.301Z,9.23
2018-11-05T22:47:37.208Z,9.09
2018-11-05T22:50:06.725Z,9.05
2018-11-05T22:52:35.646Z,8.99
2018-11-05T22:55:04.955Z,8.91
2018-11-05T22:57:33.837Z,8.73
2018-11-05T23:00:02.741Z,8.67
2018-11-05T23:02:31.746Z,8.73
2018-11-05T23:05:00.545Z,8.74
2018-11-05T23:07:29.314Z,8.67
2018-11-05T23:09:58.071Z,8.66
2018-11-05T23:12:26.819Z,8.68
2018-11-05T23:14:55.586Z,8.68
2018-11-05T23:17:24.332Z,8.64
2018-11-05T23:19:53.166Z,8.64
2018-11-05T23:22:21.977Z,8.56
2018-11-05T23:24:50.805Z,8.51
2018-11-05T23:27:19.533Z,8.48
2018-11-05T23:29:48.293Z,8.40
2018-11-05T23:32:17.022Z,8.26
2018-11-05T23:34:45.849Z,8.28
2018-11-05T23:37:14.710Z,8.31
2018-11-05T23:39:43.453Z,8.37
2018-11-05T23:42:12.241Z,8.39
2018-11-05T23:44:41.036Z,8.38
2018-11-05T23:47:09.759Z,8.42
2018-11-05T23:49:38.865Z,8.44
2018-11-05T23:52:07.703Z,8.41
2018-11-05T23:54:36.575Z,8.41
2018-11-05T23:57:05.467Z,8.37
2018-11-05T23:59:34.230Z,8.35
